Terminal Aerodrome Forecast
Issued by NWS Topeka, KS

Home | Current Version | Previous Version | Text Only | Print | Product List | Glossary On
Versions: 1 2 3 4 5 6 7 8 9 10 11 12 13 14 15 16 17 18 19 20
000
FTUS43 KTOP 160500
TAFTOP
TAF
KTOP 160520Z 1606/1706 12006KT 6SM BR BKN013
      TEMPO 1606/1608 4SM BR SCT013
     FM160900 12005KT 4SM BR BKN009
      TEMPO 1609/1611 3SM BR SCT009
     FM161430 13008KT 5SM BR OVC013
     FM161600 13009KT P6SM SCT040=

USA.gov is the U.S. government's official web portal to all federal, state and local government web resources and services.